Svobodnyj, Russia
Current Conditions -  °F | °C
As of 5:00 PM on Wednesday 22 Oct 2014 (Local Time) from UHBB Reporting Station
Clear Clear  
Wind Chill: 35°   Ceiling: Unl
Heat Index: 41°   Visibility: 6mi
Dew Point:   Wind: 9mph
Humidity: 23%   Direction: 210°SSW
Pressure: 29.83"   Gusts: NA
Location:  51.4°N, 128.13°E
Report Text: UHBB 220800Z 21004MPS 180V240 CAVOK 05/M15 Q1010 NOSIG RMKQFE742/0989 18090060
Loading
Personal Weather Stations






























Interactive Weather Map
Tropical Storm Tracking
New forecast layout! Learn more

10-Day Weather Forecast

Advertisements
Track Severe Weather on mobile